createdAt,value
2022-12-31T00:00:20.940Z,21.14
2022-12-31T00:01:25.156Z,21.13
2022-12-31T00:02:29.820Z,21.15
2022-12-31T00:03:34.306Z,21.15
2022-12-31T00:04:38.558Z,21.14
2022-12-31T00:05:42.708Z,21.12
2022-12-31T00:06:46.805Z,21.13
2022-12-31T00:07:50.929Z,21.12
2022-12-31T00:08:55.025Z,21.12
2022-12-31T00:09:59.156Z,21.09
2022-12-31T00:11:03.337Z,21.11
2022-12-31T00:12:07.541Z,21.08
2022-12-31T00:13:11.624Z,21.08
2022-12-31T00:14:15.844Z,21.11
2022-12-31T00:15:19.993Z,21.1
2022-12-31T00:16:24.152Z,21.1
2022-12-31T00:17:28.404Z,21.09
2022-12-31T00:18:32.619Z,21.09
2022-12-31T00:19:36.725Z,21.08
2022-12-31T00:20:40.866Z,21.06
2022-12-31T00:21:45.022Z,21.07
2022-12-31T00:22:49.114Z,21.06
2022-12-31T00:23:53.219Z,21.06
2022-12-31T00:24:57.334Z,21.06
2022-12-31T00:26:01.449Z,21.06
2022-12-31T00:27:05.532Z,21.05
2022-12-31T00:28:09.647Z,21.01
2022-12-31T00:29:13.743Z,21.03
2022-12-31T00:30:17.901Z,21.02
2022-12-31T00:31:22.063Z,21
2022-12-31T00:32:26.368Z,21.02
2022-12-31T00:33:30.472Z,21.03
2022-12-31T00:34:34.621Z,21.01
2022-12-31T00:35:38.760Z,21.02
2022-12-31T00:36:42.951Z,21
2022-12-31T00:37:47.046Z,21.02
2022-12-31T00:38:51.271Z,21.01
2022-12-31T00:39:55.811Z,21
2022-12-31T00:41:00.053Z,20.98
2022-12-31T00:42:04.224Z,20.99
2022-12-31T00:43:08.354Z,20.97
2022-12-31T00:44:12.533Z,20.99
2022-12-31T00:45:16.692Z,20.96
2022-12-31T00:46:20.857Z,20.97
2022-12-31T00:47:25.321Z,20.94
2022-12-31T00:48:29.425Z,20.96
2022-12-31T00:49:33.567Z,20.95
2022-12-31T00:50:37.737Z,20.92
2022-12-31T00:51:41.850Z,20.94
2022-12-31T00:52:46.037Z,20.91
2022-12-31T00:53:50.251Z,20.93
2022-12-31T00:54:54.483Z,20.9
2022-12-31T00:55:58.596Z,20.92
2022-12-31T00:57:02.683Z,20.89
2022-12-31T00:58:06.781Z,20.9
2022-12-31T00:59:10.878Z,20.91
2022-12-31T01:00:15.046Z,20.88
2022-12-31T01:01:19.264Z,20.89
2022-12-31T01:02:24.091Z,20.88
2022-12-31T01:03:29.056Z,20.88
2022-12-31T01:04:33.310Z,20.84
2022-12-31T01:05:37.452Z,20.87
2022-12-31T01:06:41.596Z,20.85
2022-12-31T01:07:45.751Z,20.88
2022-12-31T01:08:49.869Z,20.85
2022-12-31T01:09:54.012Z,20.9
2022-12-31T01:10:58.123Z,20.91
2022-12-31T01:12:02.236Z,20.96
2022-12-31T01:13:06.372Z,21
2022-12-31T01:14:10.515Z,21.03
2022-12-31T01:15:14.717Z,21.1
2022-12-31T01:16:18.832Z,21.15
2022-12-31T01:17:22.965Z,21.24
2022-12-31T01:18:27.091Z,21.28
2022-12-31T01:19:31.206Z,21.3
2022-12-31T01:20:35.352Z,21.36
2022-12-31T01:21:39.460Z,21.38
2022-12-31T01:22:43.607Z,21.4
2022-12-31T01:23:47.736Z,21.45
2022-12-31T01:24:51.882Z,21.48
2022-12-31T01:25:55.982Z,21.49
2022-12-31T01:27:00.119Z,21.48
2022-12-31T01:28:04.270Z,21.51
2022-12-31T01:29:08.406Z,21.54
2022-12-31T01:30:12.517Z,21.57
2022-12-31T01:31:16.723Z,21.57
2022-12-31T01:32:21.069Z,21.63
2022-12-31T01:33:25.162Z,21.6
2022-12-31T01:34:29.324Z,21.65
2022-12-31T01:35:33.435Z,21.7
2022-12-31T01:36:37.547Z,21.69
2022-12-31T01:37:41.714Z,21.71
2022-12-31T01:38:45.883Z,21.79
2022-12-31T01:39:50.019Z,21.78
2022-12-31T01:40:54.135Z,21.83
2022-12-31T01:41:58.269Z,21.83
2022-12-31T01:43:02.389Z,21.84
2022-12-31T01:44:06.486Z,21.86
2022-12-31T01:45:10.600Z,21.88
2022-12-31T01:46:14.784Z,21.88
2022-12-31T01:47:19.042Z,21.91
2022-12-31T01:48:23.181Z,21.98
2022-12-31T01:49:27.310Z,21.98
2022-12-31T01:50:31.512Z,22.02
2022-12-31T01:51:35.964Z,22.06
2022-12-31T01:52:40.078Z,22.09
2022-12-31T01:53:44.216Z,22.1
2022-12-31T01:54:48.326Z,22.13
2022-12-31T01:55:52.436Z,22.18
2022-12-31T01:56:56.580Z,22.21
2022-12-31T01:58:00.705Z,22.16
2022-12-31T01:59:04.826Z,22.19
2022-12-31T02:00:09.265Z,22.24
2022-12-31T02:01:13.481Z,22.22
2022-12-31T02:02:18.028Z,22.22
2022-12-31T02:03:22.618Z,22.23
2022-12-31T02:04:26.962Z,22.21
2022-12-31T02:05:31.067Z,22.18
2022-12-31T02:06:35.249Z,22.16
2022-12-31T02:07:39.360Z,22.1
2022-12-31T02:08:43.538Z,22.09
2022-12-31T02:09:47.714Z,22.05
2022-12-31T02:10:51.837Z,22.06
2022-12-31T02:11:56.296Z,22.03
2022-12-31T02:13:00.820Z,22.02
2022-12-31T02:14:04.943Z,21.99
2022-12-31T02:15:09.119Z,22.01
2022-12-31T02:16:13.305Z,22.02
2022-12-31T02:17:17.537Z,22
2022-12-31T02:18:21.725Z,22.02
2022-12-31T02:19:25.817Z,22.05
2022-12-31T02:20:30.028Z,22.07
2022-12-31T02:21:34.168Z,22.12
2022-12-31T02:22:38.600Z,22.15
2022-12-31T02:23:43.382Z,22.19
2022-12-31T02:24:47.515Z,22.2
2022-12-31T02:25:51.639Z,22.25
2022-12-31T02:26:55.774Z,22.28
2022-12-31T02:28:00.286Z,22.27
2022-12-31T02:29:04.392Z,22.3
2022-12-31T02:30:08.516Z,22.33
2022-12-31T02:31:12.749Z,22.37
2022-12-31T02:32:20.050Z,22.41
2022-12-31T02:33:24.255Z,22.39
2022-12-31T02:34:28.627Z,22.44
2022-12-31T02:35:32.739Z,22.44
2022-12-31T02:36:36.872Z,22.47
2022-12-31T02:37:40.976Z,22.49
2022-12-31T02:38:45.085Z,22.48
2022-12-31T02:39:49.207Z,22.48
2022-12-31T02:40:53.430Z,22.48
2022-12-31T02:41:57.549Z,22.45
2022-12-31T02:43:01.660Z,22.44
2022-12-31T02:44:05.841Z,22.4
2022-12-31T02:45:10.001Z,22.38
2022-12-31T02:46:14.123Z,22.33
2022-12-31T02:47:18.359Z,22.33
2022-12-31T02:48:22.489Z,22.31
2022-12-31T02:49:26.578Z,22.28
2022-12-31T02:50:30.682Z,22.25
2022-12-31T02:51:34.816Z,22.25
2022-12-31T02:52:38.967Z,22.24
2022-12-31T02:53:43.200Z,22.24
2022-12-31T02:54:47.896Z,22.24
2022-12-31T02:55:53.205Z,22.25
2022-12-31T02:56:57.391Z,22.26
2022-12-31T02:58:01.536Z,22.27
2022-12-31T02:59:05.709Z,22.32
2022-12-31T03:00:09.918Z,22.4
2022-12-31T03:01:14.153Z,22.38
2022-12-31T03:02:18.750Z,22.4
2022-12-31T03:03:23.314Z,22.43
2022-12-31T03:04:27.487Z,22.43
2022-12-31T03:05:31.600Z,22.43
2022-12-31T03:06:35.722Z,22.45
2022-12-31T03:07:39.845Z,22.43
2022-12-31T03:08:43.986Z,22.41
2022-12-31T03:09:48.099Z,22.38
2022-12-31T03:10:52.216Z,22.39
2022-12-31T03:11:56.319Z,22.34
2022-12-31T03:13:00.417Z,22.33
2022-12-31T03:14:04.540Z,22.32
2022-12-31T03:15:08.636Z,22.28
2022-12-31T03:16:12.785Z,22.26
2022-12-31T03:17:16.985Z,22.27
2022-12-31T03:18:21.104Z,22.26
2022-12-31T03:19:25.252Z,22.26
2022-12-31T03:20:29.411Z,22.27
2022-12-31T03:21:33.519Z,22.28
2022-12-31T03:22:37.663Z,22.28
2022-12-31T03:23:41.810Z,22.36
2022-12-31T03:24:45.948Z,22.38
2022-12-31T03:25:50.191Z,22.37
2022-12-31T03:26:54.895Z,22.41
2022-12-31T03:27:59.004Z,22.42
2022-12-31T03:29:03.149Z,22.42
2022-12-31T03:30:07.257Z,22.44
2022-12-31T03:31:11.485Z,22.51
2022-12-31T03:32:15.832Z,22.53
2022-12-31T03:33:19.938Z,22.56
2022-12-31T03:34:24.012Z,22.53
2022-12-31T03:35:28.099Z,22.54
2022-12-31T03:36:32.233Z,22.51
2022-12-31T03:37:36.338Z,22.49
2022-12-31T03:38:40.579Z,22.47
2022-12-31T03:39:44.714Z,22.44
2022-12-31T03:40:48.841Z,22.41
2022-12-31T03:41:52.997Z,22.4
2022-12-31T03:42:57.118Z,22.36
2022-12-31T03:44:01.233Z,22.38
2022-12-31T03:45:05.350Z,22.35
2022-12-31T03:46:09.563Z,22.34
2022-12-31T03:47:13.822Z,22.33
2022-12-31T03:48:17.924Z,22.32
2022-12-31T03:49:22.063Z,22.29
2022-12-31T03:50:26.216Z,22.27
2022-12-31T03:51:30.336Z,22.25
2022-12-31T03:52:34.453Z,22.2
2022-12-31T03:53:38.592Z,22.22
2022-12-31T03:54:42.703Z,22.18
2022-12-31T03:55:46.853Z,22.13
2022-12-31T03:56:53.016Z,22.15
2022-12-31T03:58:03.518Z,22.15
2022-12-31T03:59:07.662Z,22.12
2022-12-31T04:00:11.757Z,22.11
2022-12-31T04:01:15.996Z,22.09
2022-12-31T04:02:24.765Z,22.08
2022-12-31T04:03:33.037Z,22.07
2022-12-31T04:04:37.187Z,22.03
2022-12-31T04:05:41.342Z,22.04
2022-12-31T04:06:45.443Z,22.02
2022-12-31T04:07:49.570Z,22.01
2022-12-31T04:08:53.695Z,22
2022-12-31T04:09:57.810Z,21.96
2022-12-31T04:11:01.967Z,21.97
2022-12-31T04:12:06.176Z,21.96
2022-12-31T04:13:10.326Z,21.95
2022-12-31T04:14:14.445Z,21.93
2022-12-31T04:15:18.553Z,21.9
2022-12-31T04:16:22.760Z,21.91
2022-12-31T04:17:27.030Z,21.9
2022-12-31T04:18:31.192Z,21.89
2022-12-31T04:19:35.315Z,21.87
2022-12-31T04:20:39.421Z,21.86
2022-12-31T04:21:43.540Z,21.85
2022-12-31T04:22:47.653Z,21.84
2022-12-31T04:23:51.773Z,21.81
2022-12-31T04:24:55.914Z,21.83
2022-12-31T04:26:00.034Z,21.82
2022-12-31T04:27:07.722Z,21.79
2022-12-31T04:28:12.202Z,21.81
2022-12-31T04:29:16.371Z,21.77
2022-12-31T04:30:20.510Z,21.78
2022-12-31T04:31:24.635Z,21.78
2022-12-31T04:32:29.079Z,21.76
2022-12-31T04:33:33.182Z,21.8
2022-12-31T04:34:37.299Z,21.79
2022-12-31T04:35:41.435Z,21.84
2022-12-31T04:36:45.576Z,21.86
2022-12-31T04:37:49.676Z,21.89
2022-12-31T04:38:53.793Z,21.93
2022-12-31T04:40:01.982Z,21.97
2022-12-31T04:41:10.230Z,21.98
2022-12-31T04:42:14.337Z,22.04
2022-12-31T04:43:18.447Z,22.05
2022-12-31T04:44:22.581Z,22.12
2022-12-31T04:45:26.729Z,22.11
2022-12-31T04:46:30.883Z,22.17
2022-12-31T04:47:35.017Z,22.2
2022-12-31T04:48:39.111Z,22.22
2022-12-31T04:49:43.229Z,22.27
2022-12-31T04:50:47.387Z,22.32
2022-12-31T04:51:51.521Z,22.32
2022-12-31T04:52:55.620Z,22.35
2022-12-31T04:53:59.707Z,22.38
2022-12-31T04:55:03.844Z,22.4
2022-12-31T04:56:08.001Z,22.42
2022-12-31T04:57:12.124Z,22.43
2022-12-31T04:58:16.273Z,22.39
2022-12-31T04:59:20.391Z,22.38
2022-12-31T05:00:24.516Z,22.38
2022-12-31T05:01:28.692Z,22.41
2022-12-31T05:02:33.269Z,22.39
2022-12-31T05:03:38.027Z,22.33
2022-12-31T05:04:42.130Z,22.35
2022-12-31T05:05:46.258Z,22.33
2022-12-31T05:06:50.394Z,22.3
2022-12-31T05:07:54.511Z,22.29
2022-12-31T05:08:58.642Z,22.27
2022-12-31T05:10:02.782Z,22.28
2022-12-31T05:11:06.894Z,22.29
2022-12-31T05:12:11.037Z,22.28
2022-12-31T05:13:15.182Z,22.29
2022-12-31T05:14:19.320Z,22.35
2022-12-31T05:15:23.432Z,22.36
2022-12-31T05:16:27.565Z,22.39
2022-12-31T05:17:31.934Z,22.39
2022-12-31T05:18:36.088Z,22.39
2022-12-31T05:19:40.231Z,22.44
2022-12-31T05:20:44.326Z,22.44
2022-12-31T05:21:48.429Z,22.45
2022-12-31T05:22:52.548Z,22.46
2022-12-31T05:23:56.694Z,22.47
2022-12-31T05:25:00.882Z,22.49
2022-12-31T05:26:05.019Z,22.47
2022-12-31T05:27:09.142Z,22.47
2022-12-31T05:28:13.244Z,22.5
2022-12-31T05:29:17.367Z,22.56
2022-12-31T05:30:21.491Z,22.55
2022-12-31T05:31:25.584Z,22.54
2022-12-31T05:32:29.718Z,22.58
2022-12-31T05:33:33.846Z,22.62
2022-12-31T05:34:37.994Z,22.64
2022-12-31T05:35:42.107Z,22.64
2022-12-31T05:36:46.224Z,22.67
2022-12-31T05:37:50.350Z,22.67
2022-12-31T05:38:54.493Z,22.7
2022-12-31T05:39:58.618Z,22.69
2022-12-31T05:41:02.731Z,22.67
2022-12-31T05:42:06.821Z,22.7
2022-12-31T05:43:10.920Z,22.71
2022-12-31T05:44:15.015Z,22.72
2022-12-31T05:45:19.138Z,22.68
2022-12-31T05:46:33.144Z,22.67
2022-12-31T05:47:37.287Z,22.63
2022-12-31T05:48:41.427Z,22.64
2022-12-31T05:49:45.559Z,22.62
2022-12-31T05:50:49.694Z,22.61
2022-12-31T05:51:53.835Z,22.56
2022-12-31T05:52:58.011Z,22.53
2022-12-31T05:54:02.113Z,22.51
2022-12-31T05:55:06.228Z,22.5
2022-12-31T05:56:10.372Z,22.47
2022-12-31T05:57:14.482Z,22.45
2022-12-31T05:58:18.648Z,22.43
2022-12-31T05:59:22.773Z,22.41
2022-12-31T06:00:26.866Z,22.39
2022-12-31T06:01:31.023Z,22.38
2022-12-31T06:02:35.423Z,22.35
2022-12-31T06:03:39.776Z,22.31
2022-12-31T06:04:44.075Z,22.3
2022-12-31T06:05:48.220Z,22.28
2022-12-31T06:06:52.357Z,22.23
2022-12-31T06:07:56.487Z,22.27
2022-12-31T06:09:00.590Z,22.26
2022-12-31T06:10:04.708Z,22.25
2022-12-31T06:11:08.804Z,22.23
2022-12-31T06:12:12.927Z,22.21
2022-12-31T06:13:17.064Z,22.18
2022-12-31T06:14:21.164Z,22.18
2022-12-31T06:15:25.286Z,22.17
2022-12-31T06:16:29.376Z,22.13
2022-12-31T06:17:33.530Z,22.12
2022-12-31T06:18:37.632Z,22.1
2022-12-31T06:19:41.757Z,22.12
2022-12-31T06:20:45.882Z,22.11
2022-12-31T06:21:49.996Z,22.08
2022-12-31T06:22:54.117Z,22.09
2022-12-31T06:23:58.232Z,22.07
2022-12-31T06:25:02.360Z,22.04
2022-12-31T06:26:06.498Z,22.05
2022-12-31T06:27:10.598Z,22.04
2022-12-31T06:28:19.976Z,22.03
2022-12-31T06:29:24.527Z,22.02
2022-12-31T06:30:28.684Z,22.01
2022-12-31T06:31:32.870Z,21.97
2022-12-31T06:32:37.258Z,21.99
2022-12-31T06:33:41.378Z,21.99
2022-12-31T06:34:45.487Z,21.97
2022-12-31T06:35:49.591Z,21.95
2022-12-31T06:36:53.697Z,21.95
2022-12-31T06:37:57.855Z,21.92
2022-12-31T06:39:02.060Z,21.93
2022-12-31T06:40:06.189Z,21.9
2022-12-31T06:41:10.284Z,21.91
2022-12-31T06:42:14.380Z,21.89
2022-12-31T06:43:18.486Z,21.88
2022-12-31T06:44:22.708Z,21.87
2022-12-31T06:45:26.888Z,21.84
2022-12-31T06:46:31.083Z,21.86
2022-12-31T06:47:35.273Z,21.86
2022-12-31T06:48:39.378Z,21.85
2022-12-31T06:49:43.515Z,21.88
2022-12-31T06:50:47.624Z,21.89
2022-12-31T06:51:51.755Z,21.9
2022-12-31T06:52:55.891Z,21.91
2022-12-31T06:53:59.995Z,21.91
2022-12-31T06:55:04.191Z,21.92
2022-12-31T06:56:08.351Z,21.93
2022-12-31T06:57:12.491Z,21.93
2022-12-31T06:58:16.620Z,21.92
2022-12-31T06:59:20.795Z,21.92
2022-12-31T07:00:24.936Z,21.89
2022-12-31T07:01:29.170Z,21.91
2022-12-31T07:02:33.793Z,21.88
2022-12-31T07:03:38.229Z,21.9
2022-12-31T07:04:42.388Z,21.89
2022-12-31T07:05:46.537Z,21.9
2022-12-31T07:06:50.922Z,21.91
2022-12-31T07:07:55.027Z,21.9
2022-12-31T07:08:59.140Z,21.95
2022-12-31T07:10:03.342Z,21.99
2022-12-31T07:11:07.504Z,21.99
2022-12-31T07:12:11.618Z,22.04
2022-12-31T07:13:15.724Z,22.07
2022-12-31T07:14:19.868Z,22.06
2022-12-31T07:15:23.994Z,22.06
2022-12-31T07:16:28.183Z,22.07
2022-12-31T07:17:32.480Z,22.04
2022-12-31T07:18:36.592Z,22.04
2022-12-31T07:19:40.714Z,22.03
2022-12-31T07:20:44.823Z,22.03
2022-12-31T07:21:48.960Z,21.99
2022-12-31T07:22:53.065Z,22.01
2022-12-31T07:23:57.195Z,22
2022-12-31T07:25:01.281Z,21.99
2022-12-31T07:26:05.374Z,21.98
2022-12-31T07:27:09.523Z,21.97
2022-12-31T07:28:13.666Z,21.95
2022-12-31T07:29:17.839Z,21.97
2022-12-31T07:30:22.029Z,21.96
2022-12-31T07:31:26.328Z,21.98
2022-12-31T07:32:30.588Z,21.97
2022-12-31T07:33:34.726Z,22.01
2022-12-31T07:34:38.813Z,22
2022-12-31T07:35:42.939Z,22
2022-12-31T07:36:47.035Z,21.99
2022-12-31T07:37:51.171Z,21.95
2022-12-31T07:38:55.302Z,21.94
2022-12-31T07:39:59.445Z,21.94
2022-12-31T07:41:09.261Z,21.95
2022-12-31T07:42:13.651Z,21.94
2022-12-31T07:43:17.797Z,21.93
2022-12-31T07:44:21.962Z,21.9
2022-12-31T07:45:26.121Z,21.91
2022-12-31T07:46:30.648Z,21.89
2022-12-31T07:47:35.021Z,21.91
2022-12-31T07:48:39.137Z,21.89
2022-12-31T07:49:43.269Z,21.85
2022-12-31T07:50:47.435Z,21.87
2022-12-31T07:51:51.533Z,21.86
2022-12-31T07:52:55.658Z,21.85
2022-12-31T07:53:59.792Z,21.84
2022-12-31T07:55:03.910Z,21.81
2022-12-31T07:56:08.060Z,21.83
2022-12-31T07:57:12.195Z,21.79
2022-12-31T07:58:16.322Z,21.81
2022-12-31T07:59:24.173Z,21.78
2022-12-31T08:00:28.624Z,21.79
2022-12-31T08:01:33.057Z,21.79
2022-12-31T08:02:37.742Z,21.78
2022-12-31T08:03:42.090Z,21.78
2022-12-31T08:04:46.200Z,21.77
2022-12-31T08:05:50.324Z,21.75
2022-12-31T08:06:54.423Z,21.76
2022-12-31T08:07:58.524Z,21.73
2022-12-31T08:09:02.640Z,21.74
2022-12-31T08:10:07.662Z,21.71
2022-12-31T08:11:20.790Z,21.69
2022-12-31T08:12:24.886Z,21.71
2022-12-31T08:13:29.054Z,21.68
2022-12-31T08:14:33.203Z,21.68
2022-12-31T08:15:37.383Z,21.7
2022-12-31T08:16:41.555Z,21.69
2022-12-31T08:17:45.934Z,21.68
2022-12-31T08:18:50.093Z,21.66
2022-12-31T08:19:54.210Z,21.68
2022-12-31T08:20:58.332Z,21.68
2022-12-31T08:22:02.422Z,21.64
2022-12-31T08:23:06.566Z,21.66
2022-12-31T08:24:10.686Z,21.66
2022-12-31T08:25:14.824Z,21.65
2022-12-31T08:26:18.938Z,21.65
2022-12-31T08:27:23.083Z,21.61
2022-12-31T08:28:27.212Z,21.64
2022-12-31T08:29:31.325Z,21.63
2022-12-31T08:30:35.454Z,21.6
2022-12-31T08:31:39.617Z,21.62
2022-12-31T08:32:43.873Z,21.59
2022-12-31T08:33:47.980Z,21.61
2022-12-31T08:34:52.092Z,21.58
2022-12-31T08:35:56.251Z,21.61
2022-12-31T08:37:00.395Z,21.57
2022-12-31T08:38:04.533Z,21.59
2022-12-31T08:39:08.642Z,21.56
2022-12-31T08:40:12.853Z,21.58
2022-12-31T08:41:17.054Z,21.58
2022-12-31T08:42:21.137Z,21.55
2022-12-31T08:43:25.265Z,21.58
2022-12-31T08:44:29.375Z,21.57
2022-12-31T08:45:33.510Z,21.57
2022-12-31T08:46:37.832Z,21.55
2022-12-31T08:47:41.948Z,21.54
2022-12-31T08:48:46.075Z,21.56
2022-12-31T08:49:50.202Z,21.55
2022-12-31T08:50:54.357Z,21.54
2022-12-31T08:51:58.502Z,21.54
2022-12-31T08:53:02.619Z,21.52
2022-12-31T08:54:06.768Z,21.52
2022-12-31T08:55:10.868Z,21.55
2022-12-31T08:56:14.967Z,21.55
2022-12-31T08:57:19.064Z,21.51
2022-12-31T08:58:23.198Z,21.53
2022-12-31T08:59:27.336Z,21.5
2022-12-31T09:00:31.472Z,21.5
2022-12-31T09:01:35.741Z,21.5
2022-12-31T09:02:44.677Z,21.49
2022-12-31T09:03:51.992Z,21.46
2022-12-31T09:04:56.251Z,21.46
2022-12-31T09:06:00.382Z,21.46
2022-12-31T09:07:04.586Z,21.49
2022-12-31T09:08:08.703Z,21.45
2022-12-31T09:09:12.794Z,21.44
2022-12-31T09:10:16.956Z,21.44
2022-12-31T09:11:23.374Z,21.43
2022-12-31T09:12:27.773Z,21.42
2022-12-31T09:13:31.908Z,21.42
2022-12-31T09:14:36.041Z,21.42
2022-12-31T09:15:40.272Z,21.41
2022-12-31T09:16:44.495Z,21.42
2022-12-31T09:17:48.838Z,21.4
2022-12-31T09:18:52.963Z,21.42
2022-12-31T09:19:57.181Z,21.39
2022-12-31T09:21:01.315Z,21.38
2022-12-31T09:22:05.474Z,21.4
2022-12-31T09:23:09.593Z,21.39
2022-12-31T09:24:13.731Z,21.38
2022-12-31T09:25:17.891Z,21.37
2022-12-31T09:26:22.170Z,21.33
2022-12-31T09:27:27.941Z,21.36
2022-12-31T09:28:32.450Z,21.35
2022-12-31T09:29:36.709Z,21.35
2022-12-31T09:30:40.896Z,21.32
2022-12-31T09:31:45.081Z,21.3
2022-12-31T09:32:50.318Z,21.3
2022-12-31T09:34:04.092Z,21.3
2022-12-31T09:35:11.113Z,21.28
2022-12-31T09:36:15.480Z,21.27
2022-12-31T09:37:25.298Z,21.3
2022-12-31T09:38:29.431Z,21.3
2022-12-31T09:39:33.569Z,21.3
2022-12-31T09:40:37.722Z,21.28
2022-12-31T09:41:41.842Z,21.31
2022-12-31T09:42:46.204Z,21.3
2022-12-31T09:43:53.436Z,21.3
2022-12-31T09:45:04.534Z,21.3
2022-12-31T09:46:08.715Z,21.29
2022-12-31T09:47:13.267Z,21.29
2022-12-31T09:48:17.551Z,21.28
2022-12-31T09:49:21.846Z,21.3
2022-12-31T09:50:25.975Z,21.3
2022-12-31T09:51:30.197Z,21.27
2022-12-31T09:52:34.316Z,21.29
2022-12-31T09:53:38.415Z,21.27
2022-12-31T09:54:42.647Z,21.29
2022-12-31T09:55:46.767Z,21.28
2022-12-31T09:56:54.147Z,21.29
2022-12-31T09:58:02.560Z,21.27
2022-12-31T09:59:06.711Z,21.26
2022-12-31T10:00:10.841Z,21.3
2022-12-31T10:01:15.219Z,21.29
2022-12-31T10:02:19.873Z,21.27
2022-12-31T10:03:24.687Z,21.27
2022-12-31T10:04:29.078Z,21.28
2022-12-31T10:05:33.274Z,21.29
2022-12-31T10:06:37.415Z,21.29
2022-12-31T10:07:41.948Z,21.28
2022-12-31T10:08:56.291Z,21.28
2022-12-31T10:10:00.434Z,21.29
2022-12-31T10:11:04.580Z,21.29
2022-12-31T10:12:08.699Z,21.29
2022-12-31T10:13:12.802Z,21.28
2022-12-31T10:14:16.899Z,21.28
2022-12-31T10:15:21.014Z,21.27
2022-12-31T10:16:25.174Z,21.27
2022-12-31T10:17:29.431Z,21.25
2022-12-31T10:18:33.551Z,21.27
2022-12-31T10:19:37.983Z,21.27
2022-12-31T10:20:45.381Z,21.27
2022-12-31T10:21:49.685Z,21.23
2022-12-31T10:22:53.939Z,21.25
2022-12-31T10:23:58.091Z,21.23
2022-12-31T10:25:02.266Z,21.24
2022-12-31T10:26:06.680Z,21.24
2022-12-31T10:27:10.792Z,21.25
2022-12-31T10:28:14.997Z,21.24
2022-12-31T10:29:19.122Z,21.25
2022-12-31T10:30:23.251Z,21.24
2022-12-31T10:31:27.365Z,21.23
2022-12-31T10:32:31.767Z,21.23
2022-12-31T10:33:35.918Z,21.22
2022-12-31T10:34:40.039Z,21.21
2022-12-31T10:35:44.260Z,21.22
2022-12-31T10:36:48.417Z,21.21
2022-12-31T10:37:52.545Z,21.19
2022-12-31T10:38:56.698Z,21.18
2022-12-31T10:40:00.850Z,21.2
2022-12-31T10:41:04.948Z,21.18
2022-12-31T10:42:09.114Z,21.18
2022-12-31T10:43:13.352Z,21.19
2022-12-31T10:44:17.488Z,21.17
2022-12-31T10:45:21.774Z,21.13
2022-12-31T10:46:25.985Z,21.16
2022-12-31T10:47:30.275Z,21.19
2022-12-31T10:48:34.398Z,21.16
2022-12-31T10:49:38.603Z,21.19
2022-12-31T10:50:42.720Z,21.19
2022-12-31T10:51:47.483Z,21.17
2022-12-31T10:52:51.673Z,21.14
2022-12-31T10:53:55.783Z,21.17
2022-12-31T10:54:59.907Z,21.17
2022-12-31T10:56:04.049Z,21.15
2022-12-31T10:57:08.154Z,21.17
2022-12-31T10:58:12.550Z,21.17
2022-12-31T10:59:16.852Z,21.18
2022-12-31T11:00:21.071Z,21.18
2022-12-31T11:01:25.901Z,21.16
2022-12-31T11:02:30.884Z,21.18
2022-12-31T11:03:36.080Z,21.18
2022-12-31T11:04:40.727Z,21.17
2022-12-31T11:05:44.986Z,21.18
2022-12-31T11:06:49.341Z,21.18
2022-12-31T11:07:53.759Z,21.15
2022-12-31T11:08:58.421Z,21.17
2022-12-31T11:10:02.795Z,21.15
2022-12-31T11:11:07.237Z,21.18
2022-12-31T11:12:12.065Z,21.15
2022-12-31T11:13:16.823Z,21.17
2022-12-31T11:14:20.916Z,21.14
2022-12-31T11:15:25.077Z,21.16
2022-12-31T11:16:29.575Z,21.16
2022-12-31T11:17:34.111Z,21.14
2022-12-31T11:18:38.781Z,21.15
2022-12-31T11:19:43.484Z,21.14
2022-12-31T11:20:47.799Z,21.14
2022-12-31T11:21:52.316Z,21.17
2022-12-31T11:22:56.804Z,21.17
2022-12-31T11:24:01.118Z,21.14
2022-12-31T11:25:05.572Z,21.16
2022-12-31T11:26:19.530Z,21.17
2022-12-31T11:27:24.459Z,21.17
2022-12-31T11:28:28.723Z,21.14
2022-12-31T11:29:33.517Z,21.16
2022-12-31T11:30:38.358Z,21.16
2022-12-31T11:31:43.317Z,21.16
2022-12-31T11:32:47.824Z,21.13
2022-12-31T11:33:52.416Z,21.15
2022-12-31T11:34:56.971Z,21.15
2022-12-31T11:36:01.422Z,21.12
2022-12-31T11:37:05.968Z,21.15
2022-12-31T11:38:10.892Z,21.15
2022-12-31T11:39:15.127Z,21.12
2022-12-31T11:40:19.299Z,21.14
2022-12-31T11:41:23.976Z,21.13
2022-12-31T11:42:28.078Z,21.13
2022-12-31T11:43:32.195Z,21.13
2022-12-31T11:44:36.297Z,21.12
2022-12-31T11:45:43.209Z,21.13
2022-12-31T11:46:53.893Z,21.13
2022-12-31T11:48:28.921Z,21.09
2022-12-31T11:49:35.508Z,21.12
2022-12-31T11:50:39.792Z,21.11
2022-12-31T11:51:48.525Z,21.1
2022-12-31T11:52:54.291Z,21.08
2022-12-31T11:53:58.644Z,21.1
2022-12-31T11:55:02.748Z,21.1
2022-12-31T11:56:07.014Z,21.1
2022-12-31T11:57:11.120Z,21.12
2022-12-31T11:58:15.280Z,21.11
2022-12-31T11:59:19.992Z,21.11
2022-12-31T12:00:24.516Z,21.11
2022-12-31T12:01:28.928Z,21.1
2022-12-31T12:02:33.288Z,21.09
2022-12-31T12:03:37.667Z,21.09
2022-12-31T12:04:42.011Z,21.07
2022-12-31T12:05:46.155Z,21.09
2022-12-31T12:06:50.362Z,21.09
2022-12-31T12:07:55.631Z,21.09
2022-12-31T12:08:59.806Z,21.09
2022-12-31T12:10:03.967Z,21.06
2022-12-31T12:11:08.088Z,21.09
2022-12-31T12:12:12.192Z,21.09
2022-12-31T12:13:16.506Z,21.09
2022-12-31T12:14:20.646Z,21.09
2022-12-31T12:15:24.827Z,21.09
2022-12-31T12:16:28.988Z,21.09
2022-12-31T12:17:33.227Z,21.09
2022-12-31T12:18:37.395Z,21.09
2022-12-31T12:19:41.899Z,21.09
2022-12-31T12:20:58.760Z,21.1
2022-12-31T12:22:03.396Z,21.1
2022-12-31T12:23:07.819Z,21.08
2022-12-31T12:24:12.255Z,21.1
2022-12-31T12:25:16.574Z,21.1
2022-12-31T12:26:20.956Z,21.1
2022-12-31T12:27:25.242Z,21.09
2022-12-31T12:28:31.230Z,21.09
2022-12-31T12:29:35.349Z,21.06
2022-12-31T12:30:39.447Z,21.08
2022-12-31T12:31:43.645Z,21.08
2022-12-31T12:32:47.918Z,21.08
2022-12-31T12:33:52.149Z,21.05
2022-12-31T12:34:56.999Z,21.05
2022-12-31T12:36:01.736Z,21.07
2022-12-31T12:37:06.364Z,21.07
2022-12-31T12:38:13.875Z,21.07
2022-12-31T12:39:18.469Z,21.07
2022-12-31T12:40:24.061Z,21.06
2022-12-31T12:41:37.710Z,21.04
2022-12-31T12:42:42.232Z,21.06
2022-12-31T12:43:46.731Z,21.06
2022-12-31T12:44:51.162Z,21.05
2022-12-31T12:45:55.684Z,21.05
2022-12-31T12:47:00.110Z,21.05
2022-12-31T12:48:04.746Z,21.02
2022-12-31T12:49:09.114Z,21.05
2022-12-31T12:50:13.494Z,21.05
2022-12-31T12:51:18.049Z,21.04
2022-12-31T12:52:22.355Z,21.03
2022-12-31T12:53:26.454Z,21.02
2022-12-31T12:54:30.633Z,21.03
2022-12-31T12:55:34.923Z,21.04
2022-12-31T12:56:39.077Z,21.03
2022-12-31T12:57:43.223Z,21.04
2022-12-31T12:58:47.392Z,21.01
2022-12-31T12:59:51.618Z,21.04
2022-12-31T13:00:56.140Z,21.03
2022-12-31T13:02:00.805Z,21.02
2022-12-31T13:03:05.324Z,21.03
2022-12-31T13:05:44.398Z,21.03
2022-12-31T13:06:48.509Z,21.01
2022-12-31T13:07:52.743Z,21
2022-12-31T13:08:56.916Z,21.02
2022-12-31T13:10:01.038Z,21.02
2022-12-31T13:11:05.204Z,21
2022-12-31T13:12:09.376Z,21.02
2022-12-31T13:13:23.682Z,21.02
2022-12-31T13:14:29.083Z,21.02
2022-12-31T13:15:33.212Z,21.01
2022-12-31T13:16:37.387Z,20.99
2022-12-31T13:17:41.637Z,20.99
2022-12-31T13:18:50.324Z,21.02
2022-12-31T13:19:54.452Z,21.02
2022-12-31T13:20:58.584Z,21
2022-12-31T13:22:02.696Z,21.01
2022-12-31T13:23:06.867Z,21.02
2022-12-31T13:24:11.026Z,21.02
2022-12-31T13:25:15.137Z,21.01
2022-12-31T13:26:19.260Z,21.01
2022-12-31T13:27:23.386Z,21.01
2022-12-31T13:28:27.546Z,21.01
2022-12-31T13:29:31.713Z,21.01
2022-12-31T13:30:35.862Z,21.01
2022-12-31T13:31:40.034Z,21.01
2022-12-31T13:32:44.251Z,21.01
2022-12-31T13:33:48.373Z,21.01
2022-12-31T13:34:52.502Z,20.99
2022-12-31T13:35:56.739Z,20.98
2022-12-31T13:37:00.983Z,20.98
2022-12-31T13:38:05.906Z,20.97
2022-12-31T13:39:10.236Z,20.99
2022-12-31T13:40:14.356Z,20.99
2022-12-31T13:41:18.565Z,20.99
2022-12-31T13:42:22.917Z,20.98
2022-12-31T13:43:27.117Z,20.99
2022-12-31T13:44:31.398Z,20.99
2022-12-31T13:45:35.951Z,20.98
2022-12-31T13:46:40.136Z,20.96
2022-12-31T13:47:44.272Z,20.97
2022-12-31T13:48:48.397Z,20.99
2022-12-31T13:49:52.525Z,20.97
2022-12-31T13:50:56.774Z,21
2022-12-31T13:52:00.895Z,21
2022-12-31T13:53:05.213Z,20.99
2022-12-31T13:54:09.357Z,20.97
2022-12-31T13:55:13.478Z,20.99
2022-12-31T13:56:17.638Z,20.99